createdAt,value
2017-08-26T00:00:35.375Z,0
2017-08-26T00:01:35.346Z,0
2017-08-26T00:02:35.363Z,0
2017-08-26T00:03:34.988Z,0
2017-08-26T00:04:35.285Z,0
2017-08-26T00:05:35.257Z,0
2017-08-26T00:06:35.253Z,0
2017-08-26T00:07:35.218Z,0
2017-08-26T00:08:35.201Z,0
2017-08-26T00:09:35.186Z,0
2017-08-26T00:10:35.160Z,0
2017-08-26T00:11:35.196Z,0
2017-08-26T00:12:35.119Z,0
2017-08-26T00:13:35.096Z,0
2017-08-26T00:14:35.081Z,0
2017-08-26T00:15:35.062Z,0
2017-08-26T00:16:35.042Z,0
2017-08-26T00:17:35.023Z,0
2017-08-26T00:18:35.000Z,0
2017-08-26T00:19:34.995Z,0
2017-08-26T00:20:34.648Z,0
2017-08-26T00:21:35.041Z,0
2017-08-26T00:22:34.952Z,0
2017-08-26T00:23:34.897Z,0
2017-08-26T00:24:34.884Z,0
2017-08-26T00:25:34.856Z,0
2017-08-26T00:26:34.886Z,0
2017-08-26T00:27:34.821Z,0
2017-08-26T00:28:35.104Z,0
2017-08-26T00:29:34.771Z,0
2017-08-26T00:30:34.450Z,0
2017-08-26T00:31:34.474Z,0
2017-08-26T00:32:34.731Z,0
2017-08-26T00:33:34.696Z,0
2017-08-26T00:34:34.469Z,0
2017-08-26T00:35:34.662Z,0
2017-08-26T00:36:34.330Z,0
2017-08-26T00:37:34.613Z,0
2017-08-26T00:38:34.596Z,0
2017-08-26T00:39:34.575Z,0
2017-08-26T00:40:34.601Z,0
2017-08-26T00:41:34.545Z,0
2017-08-26T00:42:34.509Z,0
2017-08-26T00:43:34.496Z,0
2017-08-26T00:44:34.478Z,0
2017-08-26T00:45:34.452Z,0
2017-08-26T00:46:34.448Z,0
2017-08-26T00:47:34.410Z,0
2017-08-26T00:48:34.449Z,0
2017-08-26T00:49:34.064Z,0
2017-08-26T00:50:34.353Z,0
2017-08-26T00:51:34.334Z,0
2017-08-26T00:52:33.707Z,0
2017-08-26T00:53:33.991Z,0
2017-08-26T00:54:34.320Z,0
2017-08-26T00:55:34.246Z,0
2017-08-26T00:56:34.227Z,0
2017-08-26T00:57:34.212Z,0
2017-08-26T00:58:34.190Z,0
2017-08-26T00:59:34.236Z,0
2017-08-26T01:00:34.155Z,0
2017-08-26T01:01:34.134Z,0
2017-08-26T01:02:34.113Z,0
2017-08-26T01:03:34.095Z,0
2017-08-26T01:04:34.063Z,0
2017-08-26T01:05:34.045Z,0
2017-08-26T01:06:34.027Z,0
2017-08-26T01:07:33.702Z,0
2017-08-26T01:08:33.999Z,0
2017-08-26T01:09:33.969Z,0
2017-08-26T01:10:33.946Z,0
2017-08-26T01:11:33.979Z,0
2017-08-26T01:12:33.909Z,0
2017-08-26T01:13:33.892Z,0
2017-08-26T01:14:33.936Z,0
2017-08-26T01:15:33.857Z,0
2017-08-26T01:16:33.829Z,0
2017-08-26T01:17:33.807Z,0
2017-08-26T01:18:33.787Z,0
2017-08-26T01:19:33.764Z,0
2017-08-26T01:20:33.800Z,0
2017-08-26T01:21:33.415Z,0
2017-08-26T01:22:33.707Z,0
2017-08-26T01:23:33.735Z,0
2017-08-26T01:24:33.776Z,0
2017-08-26T01:25:33.654Z,0
2017-08-26T01:26:33.620Z,0
2017-08-26T01:27:33.295Z,0
2017-08-26T01:28:33.647Z,0
2017-08-26T01:29:33.570Z,0
2017-08-26T01:30:33.572Z,0
2017-08-26T01:31:33.593Z,0
2017-08-26T01:32:33.506Z,0
2017-08-26T01:33:33.487Z,0
2017-08-26T01:34:33.483Z,0
2017-08-26T01:35:33.445Z,0
2017-08-26T01:36:33.675Z,0
2017-08-26T01:37:33.420Z,0
2017-08-26T01:38:33.381Z,0
2017-08-26T01:39:33.366Z,0
2017-08-26T01:40:33.349Z,0
2017-08-26T01:41:33.327Z,0
2017-08-26T01:42:33.333Z,0
2017-08-26T01:43:33.292Z,0
2017-08-26T01:44:33.323Z,0
2017-08-26T01:45:33.253Z,0
2017-08-26T01:46:33.475Z,0
2017-08-26T01:47:32.897Z,0
2017-08-26T01:48:33.203Z,0
2017-08-26T01:49:33.166Z,0
2017-08-26T01:50:33.143Z,0
2017-08-26T01:51:33.133Z,0
2017-08-26T01:52:33.109Z,0
2017-08-26T01:53:33.133Z,0
2017-08-26T01:54:33.067Z,0
2017-08-26T01:55:33.036Z,0
2017-08-26T01:56:33.039Z,0
2017-08-26T01:57:33.012Z,0
2017-08-26T01:58:32.994Z,0
2017-08-26T01:59:32.957Z,0
2017-08-26T02:00:32.942Z,0
2017-08-26T02:01:32.925Z,0
2017-08-26T02:02:32.903Z,0
2017-08-26T02:03:32.944Z,0
2017-08-26T02:04:32.865Z,0
2017-08-26T02:05:32.844Z,0
2017-08-26T02:06:32.828Z,0
2017-08-26T02:07:32.806Z,0
2017-08-26T02:08:32.781Z,0
2017-08-26T02:09:32.750Z,0
2017-08-26T02:10:32.745Z,0
2017-08-26T02:11:32.420Z,0
2017-08-26T02:12:32.695Z,0
2017-08-26T02:13:32.676Z,0
2017-08-26T02:14:32.664Z,0
2017-08-26T02:15:32.649Z,0
2017-08-26T02:16:32.620Z,0
2017-08-26T02:17:32.600Z,0
2017-08-26T02:18:32.274Z,0
2017-08-26T02:19:32.563Z,0
2017-08-26T02:20:32.540Z,0
2017-08-26T02:21:32.517Z,0
2017-08-26T02:22:32.493Z,0
2017-08-26T02:23:32.166Z,0
2017-08-26T02:24:32.459Z,0
2017-08-26T02:25:32.436Z,0
2017-08-26T02:26:32.420Z,0
2017-08-26T02:27:32.391Z,0
2017-08-26T02:28:32.385Z,0
2017-08-26T02:29:32.383Z,0
2017-08-26T02:30:32.335Z,0
2017-08-26T02:31:32.323Z,0
2017-08-26T02:32:32.047Z,0
2017-08-26T02:33:32.274Z,0
2017-08-26T02:34:32.246Z,0
2017-08-26T02:35:32.249Z,0
2017-08-26T02:36:32.234Z,0
2017-08-26T02:37:31.889Z,0
2017-08-26T02:38:31.595Z,0
2017-08-26T02:39:32.157Z,0
2017-08-26T02:40:32.137Z,0
2017-08-26T02:41:32.109Z,0
2017-08-26T02:42:31.803Z,0
2017-08-26T02:43:32.122Z,0
2017-08-26T02:44:32.047Z,0
2017-08-26T02:45:32.039Z,0
2017-08-26T02:46:32.064Z,0
2017-08-26T02:47:31.689Z,0
2017-08-26T02:48:31.967Z,0
2017-08-26T02:49:31.954Z,0
2017-08-26T02:50:31.922Z,0
2017-08-26T02:51:31.916Z,0
2017-08-26T02:52:31.587Z,0
2017-08-26T02:53:31.873Z,0
2017-08-26T02:54:31.846Z,0
2017-08-26T02:55:31.879Z,0
2017-08-26T02:56:31.818Z,0
2017-08-26T02:57:31.787Z,0
2017-08-26T02:58:31.773Z,0
2017-08-26T02:59:31.754Z,0
2017-08-26T03:00:31.725Z,0
2017-08-26T03:01:31.706Z,0
2017-08-26T03:02:31.706Z,0
2017-08-26T03:03:31.378Z,0
2017-08-26T03:04:31.642Z,0
2017-08-26T03:05:31.635Z,0
2017-08-26T03:06:31.608Z,0
2017-08-26T03:07:31.595Z,0
2017-08-26T03:08:31.561Z,0
2017-08-26T03:09:31.540Z,0
2017-08-26T03:10:31.217Z,0
2017-08-26T03:11:31.508Z,0
2017-08-26T03:12:31.506Z,0
2017-08-26T03:13:31.469Z,0
2017-08-26T03:14:31.158Z,0
2017-08-26T03:15:31.115Z,0
2017-08-26T03:16:31.100Z,0
2017-08-26T03:17:31.378Z,0
2017-08-26T03:18:31.365Z,0
2017-08-26T03:19:31.368Z,0
2017-08-26T03:20:31.328Z,0
2017-08-26T03:21:31.301Z,0
2017-08-26T03:22:31.286Z,0
2017-08-26T03:23:31.273Z,0
2017-08-26T03:24:31.262Z,0
2017-08-26T03:25:30.916Z,0
2017-08-26T03:26:30.902Z,0
2017-08-26T03:27:31.189Z,0
2017-08-26T03:28:31.162Z,0
2017-08-26T03:29:30.894Z,0
2017-08-26T03:30:30.833Z,0
2017-08-26T03:31:31.112Z,0
2017-08-26T03:32:31.074Z,0
2017-08-26T03:33:31.065Z,0
2017-08-26T03:34:30.754Z,0
2017-08-26T03:35:31.021Z,0
2017-08-26T03:36:30.697Z,0
2017-08-26T03:37:31.040Z,0
2017-08-26T03:38:30.955Z,0
2017-08-26T03:39:30.944Z,0
2017-08-26T03:40:30.971Z,0
2017-08-26T03:41:30.290Z,0
2017-08-26T03:42:30.875Z,0
2017-08-26T03:43:30.553Z,0
2017-08-26T03:44:30.832Z,0
2017-08-26T03:45:30.814Z,0
2017-08-26T03:46:30.798Z,0
2017-08-26T03:47:30.770Z,0
2017-08-26T03:48:30.498Z,0
2017-08-26T03:49:30.440Z,0
2017-08-26T03:50:30.718Z,0
2017-08-26T03:51:30.695Z,0
2017-08-26T03:52:30.672Z,0
2017-08-26T03:53:30.689Z,0
2017-08-26T03:54:30.691Z,0
2017-08-26T03:55:30.664Z,0
2017-08-26T03:56:30.589Z,0
2017-08-26T03:57:30.574Z,0
2017-08-26T03:58:30.558Z,0
2017-08-26T03:59:30.575Z,0
2017-08-26T04:00:30.574Z,0
2017-08-26T04:01:30.233Z,0
2017-08-26T04:02:30.464Z,0
2017-08-26T04:03:30.138Z,0
2017-08-26T04:04:30.434Z,0
2017-08-26T04:05:30.411Z,0
2017-08-26T04:06:30.090Z,0
2017-08-26T04:07:30.366Z,0
2017-08-26T04:08:30.364Z,0
2017-08-26T04:09:30.327Z,0
2017-08-26T04:10:30.557Z,0
2017-08-26T04:11:30.293Z,0
2017-08-26T04:12:30.261Z,0
2017-08-26T04:13:30.242Z,0
2017-08-26T04:14:29.914Z,0
2017-08-26T04:15:30.210Z,0
2017-08-26T04:16:30.195Z,0
2017-08-26T04:17:30.161Z,0
2017-08-26T04:18:30.198Z,0
2017-08-26T04:19:30.117Z,0
2017-08-26T04:20:30.099Z,0
2017-08-26T04:21:30.082Z,0
2017-08-26T04:22:29.756Z,0
2017-08-26T04:23:30.045Z,0
2017-08-26T04:24:30.025Z,0
2017-08-26T04:25:29.694Z,0
2017-08-26T04:26:29.990Z,0
2017-08-26T04:27:29.661Z,0
2017-08-26T04:28:29.942Z,0
2017-08-26T04:29:29.927Z,0
2017-08-26T04:30:44.514Z,0
2017-08-26T04:31:29.880Z,5
2017-08-26T04:32:29.867Z,5
2017-08-26T04:33:29.844Z,5
2017-08-26T04:34:29.575Z,5
2017-08-26T04:35:29.794Z,5
2017-08-26T04:36:29.776Z,10
2017-08-26T04:37:29.761Z,10
2017-08-26T04:38:29.424Z,10
2017-08-26T04:39:29.806Z,10
2017-08-26T04:40:29.714Z,15
2017-08-26T04:41:29.674Z,15
2017-08-26T04:42:29.664Z,15
2017-08-26T04:43:29.640Z,20
2017-08-26T04:44:29.619Z,20
2017-08-26T04:45:29.596Z,20
2017-08-26T04:46:29.574Z,20
2017-08-26T04:47:29.550Z,25
2017-08-26T04:48:29.525Z,25
2017-08-26T04:49:29.560Z,25
2017-08-26T04:50:29.188Z,25
2017-08-26T04:51:29.170Z,30
2017-08-26T04:52:29.457Z,30
2017-08-26T04:53:29.127Z,30
2017-08-26T04:54:29.661Z,35
2017-08-26T04:55:29.389Z,35
2017-08-26T04:56:29.423Z,35
2017-08-26T04:57:29.358Z,35
2017-08-26T04:58:29.325Z,35
2017-08-26T04:59:29.306Z,35
2017-08-26T05:00:28.985Z,35
2017-08-26T05:01:29.274Z,40
2017-08-26T05:02:28.946Z,40
2017-08-26T05:03:29.227Z,35
2017-08-26T05:04:29.216Z,35
2017-08-26T05:05:28.879Z,35
2017-08-26T05:06:29.156Z,35
2017-08-26T05:07:29.157Z,35
2017-08-26T05:08:29.147Z,35
2017-08-26T05:09:29.110Z,35
2017-08-26T05:10:29.131Z,35
2017-08-26T05:11:29.069Z,30
2017-08-26T05:12:29.044Z,30
2017-08-26T05:13:29.021Z,30
2017-08-26T05:14:29.010Z,30
2017-08-26T05:15:28.985Z,35
2017-08-26T05:16:28.962Z,35
2017-08-26T05:17:28.941Z,40
2017-08-26T05:18:28.951Z,40
2017-08-26T05:19:28.912Z,45
2017-08-26T05:20:28.877Z,50
2017-08-26T05:21:28.548Z,50
2017-08-26T05:22:28.870Z,55
2017-08-26T05:23:28.823Z,55
2017-08-26T05:24:28.802Z,55
2017-08-26T05:25:28.835Z,55
2017-08-26T05:26:28.764Z,50
2017-08-26T05:27:28.426Z,45
2017-08-26T05:28:28.409Z,40
2017-08-26T05:29:28.702Z,35
2017-08-26T05:30:28.689Z,30
2017-08-26T05:31:28.658Z,30
2017-08-26T05:32:28.689Z,30
2017-08-26T05:33:28.620Z,30
2017-08-26T05:34:28.598Z,25
2017-08-26T05:35:28.577Z,25
2017-08-26T05:36:28.555Z,30
2017-08-26T05:37:28.250Z,30
2017-08-26T05:38:28.509Z,30
2017-08-26T05:39:28.550Z,30
2017-08-26T05:40:28.482Z,30
2017-08-26T05:41:28.445Z,35
2017-08-26T05:42:28.432Z,35
2017-08-26T05:43:28.420Z,35
2017-08-26T05:44:28.397Z,35
2017-08-26T05:45:28.375Z,35
2017-08-26T05:46:28.351Z,35
2017-08-26T05:47:28.338Z,35
2017-08-26T05:48:28.357Z,35
2017-08-26T05:49:28.296Z,35
2017-08-26T05:50:28.272Z,35
2017-08-26T05:51:28.253Z,40
2017-08-26T05:52:28.241Z,45
2017-08-26T05:53:28.209Z,50
2017-08-26T05:54:28.191Z,50
2017-08-26T05:55:28.468Z,55
2017-08-26T05:56:28.153Z,60
2017-08-26T05:57:27.821Z,70
2017-08-26T05:58:28.154Z,70
2017-08-26T05:59:27.785Z,75
2017-08-26T06:00:28.081Z,75
2017-08-26T06:01:28.061Z,80
2017-08-26T06:02:27.719Z,80
2017-08-26T06:03:28.024Z,80
2017-08-26T06:04:28.043Z,80
2017-08-26T06:05:28.070Z,85
2017-08-26T06:06:27.964Z,110
2017-08-26T06:07:27.936Z,95
2017-08-26T06:08:27.912Z,90
2017-08-26T06:09:27.597Z,85
2017-08-26T06:10:27.871Z,85
2017-08-26T06:11:27.852Z,90
2017-08-26T06:12:27.518Z,95
2017-08-26T06:13:27.800Z,100
2017-08-26T06:14:27.799Z,105
2017-08-26T06:15:27.523Z,115
2017-08-26T06:16:27.755Z,130
2017-08-26T06:17:27.731Z,130
2017-08-26T06:18:27.709Z,140
2017-08-26T06:19:27.701Z,155
2017-08-26T06:20:27.722Z,150
2017-08-26T06:21:27.346Z,155
2017-08-26T06:22:27.365Z,160
2017-08-26T06:23:27.607Z,165
2017-08-26T06:24:27.585Z,170
2017-08-26T06:25:27.572Z,175
2017-08-26T06:26:27.546Z,180
2017-08-26T06:27:27.533Z,180
2017-08-26T06:28:27.518Z,190
2017-08-26T06:29:27.488Z,185
2017-08-26T06:30:27.468Z,185
2017-08-26T06:31:27.452Z,190
2017-08-26T06:32:27.435Z,190
2017-08-26T06:33:27.427Z,195
2017-08-26T06:34:27.084Z,205
2017-08-26T06:35:27.370Z,215
2017-08-26T06:36:27.348Z,225
2017-08-26T06:37:27.331Z,235
2017-08-26T06:38:27.319Z,240
2017-08-26T06:39:27.303Z,240
2017-08-26T06:40:27.282Z,250
2017-08-26T06:41:27.251Z,255
2017-08-26T06:42:27.239Z,265
2017-08-26T06:43:27.239Z,280
2017-08-26T06:44:27.200Z,295
2017-08-26T06:45:27.129Z,315
2017-08-26T06:46:27.166Z,350
2017-08-26T06:47:27.201Z,295
2017-08-26T06:48:26.813Z,330
2017-08-26T06:49:27.105Z,355
2017-08-26T06:50:27.093Z,325
2017-08-26T06:51:27.060Z,355
2017-08-26T06:52:27.055Z,445
2017-08-26T06:53:27.034Z,480
2017-08-26T06:54:27.028Z,520
2017-08-26T06:55:26.995Z,530
2017-08-26T06:56:26.972Z,520
2017-08-26T06:57:26.963Z,560
2017-08-26T06:58:26.931Z,555
2017-08-26T06:59:26.922Z,460
2017-08-26T07:00:26.960Z,490
2017-08-26T07:01:26.685Z,470
2017-08-26T07:02:26.887Z,555
2017-08-26T07:03:26.850Z,565
2017-08-26T07:04:26.532Z,565
2017-08-26T07:05:26.826Z,550
2017-08-26T07:06:26.813Z,480
2017-08-26T07:07:26.787Z,505
2017-08-26T07:08:26.775Z,445
2017-08-26T07:09:26.768Z,400
2017-08-26T07:10:26.749Z,405
2017-08-26T07:11:26.734Z,430
2017-08-26T07:12:26.703Z,460
2017-08-26T07:13:26.689Z,475
2017-08-26T07:14:26.669Z,550
2017-08-26T07:15:26.657Z,605
2017-08-26T07:16:26.647Z,605
2017-08-26T07:17:26.632Z,580
2017-08-26T07:18:26.610Z,600
2017-08-26T07:19:26.286Z,520
2017-08-26T07:20:26.643Z,540
2017-08-26T07:21:26.574Z,610
2017-08-26T07:22:26.244Z,585
2017-08-26T07:23:26.535Z,590
2017-08-26T07:24:26.520Z,630
2017-08-26T07:25:26.507Z,715
2017-08-26T07:26:26.486Z,650
2017-08-26T07:27:26.481Z,695
2017-08-26T07:28:26.480Z,730
2017-08-26T07:29:26.468Z,695
2017-08-26T07:30:26.433Z,645
2017-08-26T07:31:26.127Z,520
2017-08-26T07:32:26.410Z,470
2017-08-26T07:33:26.447Z,495
2017-08-26T07:34:26.382Z,470
2017-08-26T07:35:26.066Z,465
2017-08-26T07:36:26.356Z,455
2017-08-26T07:37:26.342Z,450
2017-08-26T07:38:26.367Z,460
2017-08-26T07:39:26.006Z,490
2017-08-26T07:40:26.295Z,555
2017-08-26T07:41:26.291Z,520
2017-08-26T07:42:26.264Z,510
2017-08-26T07:43:26.311Z,495
2017-08-26T07:44:26.256Z,485
2017-08-26T07:45:26.230Z,480
2017-08-26T07:46:26.275Z,455
2017-08-26T07:47:26.198Z,445
2017-08-26T07:48:25.619Z,430
2017-08-26T07:49:26.170Z,440
2017-08-26T07:50:26.150Z,485
2017-08-26T07:51:26.139Z,470
2017-08-26T07:52:26.112Z,500
2017-08-26T07:53:26.121Z,515
2017-08-26T07:54:26.097Z,540
2017-08-26T07:55:26.073Z,530
2017-08-26T07:56:26.077Z,575
2017-08-26T07:57:26.100Z,565
2017-08-26T07:58:26.025Z,585
2017-08-26T07:59:26.074Z,650
2017-08-26T08:00:25.687Z,705
2017-08-26T08:01:25.671Z,720
2017-08-26T08:02:25.681Z,620
2017-08-26T08:03:25.985Z,580
2017-08-26T08:04:25.953Z,565
2017-08-26T08:05:25.936Z,645
2017-08-26T08:06:25.927Z,935
2017-08-26T08:07:25.925Z,1010
2017-08-26T08:08:25.599Z,1030
2017-08-26T08:09:25.866Z,1035
2017-08-26T08:10:25.864Z,1025
2017-08-26T08:11:25.541Z,1005
2017-08-26T08:12:25.828Z,900
2017-08-26T08:13:25.820Z,875
2017-08-26T08:14:26.049Z,735
2017-08-26T08:15:25.790Z,895
2017-08-26T08:16:25.781Z,965
2017-08-26T08:17:25.808Z,920
2017-08-26T08:18:25.864Z,885
2017-08-26T08:19:25.961Z,885
2017-08-26T08:20:25.719Z,875
2017-08-26T08:21:25.746Z,990
2017-08-26T08:22:25.756Z,980
2017-08-26T08:23:25.694Z,1015
2017-08-26T08:24:25.688Z,965
2017-08-26T08:25:25.367Z,890
2017-08-26T08:26:25.669Z,880
2017-08-26T08:27:25.342Z,800
2017-08-26T08:28:25.630Z,795
2017-08-26T08:29:25.635Z,750
2017-08-26T08:30:25.621Z,675
2017-08-26T08:31:25.669Z,625
2017-08-26T08:32:25.651Z,620
2017-08-26T08:33:25.586Z,575
2017-08-26T08:34:25.583Z,505
2017-08-26T08:35:25.257Z,485
2017-08-26T08:36:25.251Z,490
2017-08-26T08:37:25.543Z,525
2017-08-26T08:38:25.519Z,585
2017-08-26T08:39:25.509Z,670
2017-08-26T08:40:25.501Z,825
2017-08-26T08:41:25.504Z,885
2017-08-26T08:42:25.185Z,750
2017-08-26T08:43:25.166Z,930
2017-08-26T08:44:25.213Z,755
2017-08-26T08:45:25.135Z,690
2017-08-26T08:46:25.534Z,610
2017-08-26T08:47:25.445Z,745
2017-08-26T08:48:25.101Z,740
2017-08-26T08:49:25.407Z,805
2017-08-26T08:50:25.386Z,940
2017-08-26T08:51:25.372Z,1070
2017-08-26T08:52:25.359Z,1075
2017-08-26T08:53:25.608Z,1015
2017-08-26T08:54:25.334Z,1020
2017-08-26T08:55:25.335Z,1165
2017-08-26T08:56:25.023Z,1265
2017-08-26T08:57:25.306Z,1235
2017-08-26T08:58:25.354Z,1160
2017-08-26T08:59:25.274Z,1140
2017-08-26T09:00:25.268Z,830
2017-08-26T09:01:25.269Z,995
2017-08-26T09:02:25.248Z,1140
2017-08-26T09:03:25.238Z,1135
2017-08-26T09:04:25.224Z,1125
2017-08-26T09:05:25.224Z,1040
2017-08-26T09:06:25.206Z,1065
2017-08-26T09:07:25.217Z,1065
2017-08-26T09:08:25.207Z,1115
2017-08-26T09:09:25.179Z,1150
2017-08-26T09:10:25.171Z,1190
2017-08-26T09:11:25.185Z,1215
2017-08-26T09:12:25.516Z,1275
2017-08-26T09:13:24.835Z,1270
2017-08-26T09:14:24.819Z,1240
2017-08-26T09:15:25.129Z,1255
2017-08-26T09:16:24.810Z,1245
2017-08-26T09:17:25.122Z,1265
2017-08-26T09:18:25.105Z,1260
2017-08-26T09:19:25.088Z,835
2017-08-26T09:20:24.775Z,885
2017-08-26T09:21:25.078Z,935
2017-08-26T09:22:24.768Z,1275
2017-08-26T09:23:25.057Z,1290
2017-08-26T09:24:25.063Z,1230
2017-08-26T09:25:25.091Z,1205
2017-08-26T09:26:25.041Z,1205
2017-08-26T09:27:24.744Z,1025
2017-08-26T09:28:25.023Z,1255
2017-08-26T09:29:25.186Z,1230
2017-08-26T09:30:25.010Z,1270
2017-08-26T09:31:24.996Z,1305
2017-08-26T09:32:24.686Z,1110
2017-08-26T09:33:24.981Z,810
2017-08-26T09:34:24.963Z,790
2017-08-26T09:35:24.667Z,980
2017-08-26T09:36:25.021Z,795
2017-08-26T09:37:24.950Z,705
2017-08-26T09:38:24.935Z,825
2017-08-26T09:39:24.922Z,940
2017-08-26T09:40:24.921Z,800
2017-08-26T09:41:24.907Z,785
2017-08-26T09:42:24.910Z,725
2017-08-26T09:43:24.586Z,810
2017-08-26T09:44:24.880Z,870
2017-08-26T09:45:24.865Z,750
2017-08-26T09:46:25.063Z,710
2017-08-26T09:47:24.858Z,695
2017-08-26T09:48:24.831Z,720
2017-08-26T09:49:24.859Z,725
2017-08-26T09:50:23.899Z,785
2017-08-26T09:51:24.861Z,1035
2017-08-26T09:52:24.806Z,785
2017-08-26T09:53:24.789Z,920
2017-08-26T09:54:24.772Z,945
2017-08-26T09:55:24.812Z,1090
2017-08-26T09:56:24.759Z,1060
2017-08-26T09:57:24.739Z,900
2017-08-26T09:58:24.732Z,885
2017-08-26T09:59:24.409Z,720
2017-08-26T10:00:24.422Z,730
2017-08-26T10:01:24.699Z,720
2017-08-26T10:02:24.678Z,685
2017-08-26T10:03:24.678Z,605
2017-08-26T10:04:24.715Z,555
2017-08-26T10:05:24.718Z,525
2017-08-26T10:06:24.673Z,525
2017-08-26T10:07:24.642Z,520
2017-08-26T10:08:24.619Z,520
2017-08-26T10:09:24.605Z,535
2017-08-26T10:10:24.595Z,550
2017-08-26T10:11:24.587Z,550
2017-08-26T10:12:24.617Z,545
2017-08-26T10:13:24.248Z,565
2017-08-26T10:14:24.547Z,585
2017-08-26T10:15:24.232Z,600
2017-08-26T10:16:24.526Z,645
2017-08-26T10:17:24.510Z,615
2017-08-26T10:18:24.179Z,580
2017-08-26T10:19:24.479Z,560
2017-08-26T10:20:24.163Z,565
2017-08-26T10:21:24.465Z,610
2017-08-26T10:22:24.646Z,685
2017-08-26T10:23:24.474Z,700
2017-08-26T10:24:24.151Z,695
2017-08-26T10:25:24.395Z,625
2017-08-26T10:26:24.381Z,590
2017-08-26T10:27:24.377Z,595
2017-08-26T10:28:24.348Z,755
2017-08-26T10:29:24.041Z,700
2017-08-26T10:30:24.330Z,645
2017-08-26T10:31:24.311Z,640
2017-08-26T10:32:24.297Z,620
2017-08-26T10:33:24.297Z,635
2017-08-26T10:34:24.281Z,620
2017-08-26T10:35:24.274Z,605
2017-08-26T10:36:24.254Z,630
2017-08-26T10:37:23.928Z,620
2017-08-26T10:38:23.913Z,605
2017-08-26T10:39:24.417Z,585
2017-08-26T10:40:24.189Z,610
2017-08-26T10:41:24.196Z,600
2017-08-26T10:42:24.163Z,600
2017-08-26T10:43:24.203Z,620
2017-08-26T10:44:24.145Z,605
2017-08-26T10:45:24.180Z,610
2017-08-26T10:46:23.508Z,630
2017-08-26T10:47:24.110Z,665
2017-08-26T10:48:24.098Z,630
2017-08-26T10:49:24.085Z,600
2017-08-26T10:50:24.058Z,560
2017-08-26T10:51:24.056Z,560
2017-08-26T10:52:24.047Z,595
2017-08-26T10:53:24.018Z,600
2017-08-26T10:54:24.005Z,610
2017-08-26T10:55:23.997Z,600
2017-08-26T10:56:23.987Z,605
2017-08-26T10:57:23.969Z,610
2017-08-26T10:58:23.952Z,615
2017-08-26T10:59:23.946Z,605
2017-08-26T11:00:23.919Z,605
2017-08-26T11:01:23.958Z,570
2017-08-26T11:02:23.895Z,520
2017-08-26T11:03:23.891Z,525
2017-08-26T11:04:23.927Z,560
2017-08-26T11:05:23.863Z,565
2017-08-26T11:06:23.848Z,565
2017-08-26T11:07:23.833Z,595
2017-08-26T11:08:23.866Z,595
2017-08-26T11:09:23.814Z,595
2017-08-26T11:10:23.789Z,595
2017-08-26T11:11:23.804Z,660
2017-08-26T11:12:23.772Z,725
2017-08-26T11:13:23.759Z,720
2017-08-26T11:14:23.736Z,660
2017-08-26T11:15:23.465Z,585
2017-08-26T11:16:23.709Z,570
2017-08-26T11:17:23.689Z,550
2017-08-26T11:18:23.675Z,515
2017-08-26T11:19:23.666Z,530
2017-08-26T11:20:23.657Z,570
2017-08-26T11:21:23.658Z,590
2017-08-26T11:22:23.330Z,645
2017-08-26T11:23:23.361Z,735
2017-08-26T11:24:23.293Z,765
2017-08-26T11:25:23.296Z,755
2017-08-26T11:26:23.266Z,720
2017-08-26T11:27:23.566Z,715
2017-08-26T11:28:23.552Z,755
2017-08-26T11:29:23.270Z,755
2017-08-26T11:30:23.606Z,750
2017-08-26T11:31:23.512Z,730
2017-08-26T11:32:23.552Z,715
2017-08-26T11:33:23.165Z,705
2017-08-26T11:34:23.484Z,670
2017-08-26T11:35:23.452Z,650
2017-08-26T11:36:23.446Z,590
2017-08-26T11:37:23.482Z,545
2017-08-26T11:38:23.427Z,540
2017-08-26T11:39:23.394Z,585
2017-08-26T11:40:23.388Z,590
2017-08-26T11:41:23.371Z,575
2017-08-26T11:42:23.356Z,615
2017-08-26T11:43:23.359Z,620
2017-08-26T11:44:23.336Z,590
2017-08-26T11:45:23.313Z,535
2017-08-26T11:46:38.141Z,570
2017-08-26T11:47:23.296Z,590
2017-08-26T11:48:23.283Z,545
2017-08-26T11:49:22.655Z,510
2017-08-26T11:50:23.251Z,430
2017-08-26T11:51:23.237Z,350
2017-08-26T11:52:23.237Z,325
2017-08-26T11:53:22.929Z,345
2017-08-26T11:54:22.950Z,350
2017-08-26T11:55:23.188Z,390
2017-08-26T11:56:22.861Z,425
2017-08-26T11:57:22.861Z,395
2017-08-26T11:58:23.146Z,335
2017-08-26T11:59:23.343Z,310
2017-08-26T12:00:23.128Z,315
2017-08-26T12:01:23.110Z,295
2017-08-26T12:02:23.088Z,310
2017-08-26T12:03:23.186Z,355
2017-08-26T12:04:22.757Z,410
2017-08-26T12:05:22.744Z,450
2017-08-26T12:06:23.043Z,445
2017-08-26T12:07:23.020Z,420
2017-08-26T12:08:23.010Z,445
2017-08-26T12:09:22.695Z,445
2017-08-26T12:10:22.981Z,440
2017-08-26T12:11:22.652Z,420
2017-08-26T12:12:22.956Z,405
2017-08-26T12:13:22.936Z,405
2017-08-26T12:14:22.915Z,410
2017-08-26T12:15:22.910Z,410
2017-08-26T12:16:22.915Z,430
2017-08-26T12:17:22.886Z,475
2017-08-26T12:18:22.606Z,535
2017-08-26T12:19:22.854Z,615
2017-08-26T12:20:22.836Z,660
2017-08-26T12:21:22.821Z,665
2017-08-26T12:22:22.810Z,635
2017-08-26T12:23:22.790Z,610
2017-08-26T12:24:22.777Z,605
2017-08-26T12:25:22.772Z,605
2017-08-26T12:26:22.493Z,605
2017-08-26T12:27:22.742Z,595
2017-08-26T12:28:22.720Z,575
2017-08-26T12:29:22.774Z,575
2017-08-26T12:30:22.379Z,595
2017-08-26T12:31:22.683Z,595
2017-08-26T12:32:22.668Z,580
2017-08-26T12:33:22.346Z,565
2017-08-26T12:34:22.645Z,550
2017-08-26T12:35:22.620Z,530
2017-08-26T12:36:22.614Z,520
2017-08-26T12:37:22.597Z,525
2017-08-26T12:38:22.596Z,525
2017-08-26T12:39:22.579Z,515
2017-08-26T12:40:22.576Z,515
2017-08-26T12:41:22.593Z,515
2017-08-26T12:42:22.529Z,475
2017-08-26T12:43:22.528Z,455
2017-08-26T12:44:22.498Z,485
2017-08-26T12:45:22.494Z,485
2017-08-26T12:46:22.475Z,480
2017-08-26T12:47:22.453Z,500
2017-08-26T12:48:22.439Z,520
2017-08-26T12:49:22.427Z,530
2017-08-26T12:50:22.121Z,505
2017-08-26T12:51:22.096Z,480
2017-08-26T12:52:22.393Z,465
2017-08-26T12:53:22.370Z,450
2017-08-26T12:54:22.366Z,445
2017-08-26T12:55:22.342Z,450
2017-08-26T12:56:22.329Z,465
2017-08-26T12:57:22.385Z,475
2017-08-26T12:58:22.301Z,475
2017-08-26T12:59:22.279Z,450
2017-08-26T13:00:22.274Z,410
2017-08-26T13:01:22.267Z,395
2017-08-26T13:02:22.253Z,365
2017-08-26T13:03:22.237Z,335
2017-08-26T13:04:22.221Z,305
2017-08-26T13:05:21.950Z,305
2017-08-26T13:06:21.899Z,305
2017-08-26T13:07:22.215Z,310
2017-08-26T13:08:22.165Z,340
2017-08-26T13:09:21.926Z,360
2017-08-26T13:10:21.867Z,370
2017-08-26T13:11:21.494Z,420
2017-08-26T13:12:22.088Z,465
2017-08-26T13:13:22.078Z,490
2017-08-26T13:14:22.078Z,490
2017-08-26T13:15:22.061Z,460
2017-08-26T13:16:22.032Z,435
2017-08-26T13:17:22.085Z,405
2017-08-26T13:18:22.014Z,410
2017-08-26T13:19:22.001Z,415
2017-08-26T13:20:21.990Z,415
2017-08-26T13:21:21.658Z,430
2017-08-26T13:22:21.651Z,445
2017-08-26T13:23:21.941Z,440
2017-08-26T13:24:21.915Z,410
2017-08-26T13:25:21.906Z,405
2017-08-26T13:26:21.896Z,415
2017-08-26T13:27:21.868Z,435
2017-08-26T13:28:21.875Z,465
2017-08-26T13:29:21.851Z,495
2017-08-26T13:30:21.534Z,520
2017-08-26T13:31:21.822Z,540
2017-08-26T13:32:21.807Z,535
2017-08-26T13:33:21.180Z,495
2017-08-26T13:34:21.770Z,460
2017-08-26T13:35:21.767Z,430
2017-08-26T13:36:21.809Z,410
2017-08-26T13:37:21.482Z,400
2017-08-26T13:38:21.727Z,395
2017-08-26T13:39:21.717Z,405
2017-08-26T13:40:21.696Z,400
2017-08-26T13:41:21.682Z,385
2017-08-26T13:42:21.713Z,390
2017-08-26T13:43:21.092Z,410
2017-08-26T13:44:21.638Z,420
2017-08-26T13:45:21.615Z,410
2017-08-26T13:46:20.987Z,375
2017-08-26T13:47:21.281Z,355
2017-08-26T13:48:21.566Z,325
2017-08-26T13:49:21.606Z,305
2017-08-26T13:50:21.249Z,300
2017-08-26T13:51:21.532Z,310
2017-08-26T13:52:21.524Z,345
2017-08-26T13:53:21.504Z,360
2017-08-26T13:54:21.498Z,340
2017-08-26T13:55:21.472Z,300
2017-08-26T13:56:21.170Z,265
2017-08-26T13:57:21.449Z,260
2017-08-26T13:58:21.452Z,265
2017-08-26T13:59:21.104Z,275
2017-08-26T14:00:21.087Z,305
2017-08-26T14:01:21.435Z,320
2017-08-26T14:02:21.374Z,315
2017-08-26T14:03:20.752Z,320
2017-08-26T14:04:21.332Z,325
2017-08-26T14:05:21.021Z,305
2017-08-26T14:06:21.362Z,280